sensor_id;sensor_type;location;lat;lon;timestamp;pressure;altitude;pressure_sealevel;temperature;humidity
49030;BME280;43337;52.070;4.508;2022-11-11T00:01:23;102906.56;;;10.82;91.84
49030;BME280;43337;52.070;4.508;2022-11-11T00:03:48;102911.88;;;10.79;91.58
49030;BME280;43337;52.070;4.508;2022-11-11T00:06:15;102912.75;;;10.80;91.44
49030;BME280;43337;52.070;4.508;2022-11-11T00:08:41;102909.25;;;10.76;91.54
49030;BME280;43337;52.070;4.508;2022-11-11T00:11:11;102922.50;;;10.73;91.56
49030;BME280;43337;52.070;4.508;2022-11-11T00:13:38;102919.84;;;10.71;91.64
49030;BME280;43337;52.070;4.508;2022-11-11T00:16:06;102892.75;;;10.59;91.41
49030;BME280;43337;52.070;4.508;2022-11-11T00:18:32;102898.06;;;10.57;91.61
49030;BME280;43337;52.070;4.508;2022-11-11T00:21:16;102912.03;;;10.61;92.54
49030;BME280;43337;52.070;4.508;2022-11-11T00:24:00;102893.72;;;10.50;92.76
49030;BME280;43337;52.070;4.508;2022-11-11T00:26:43;102902.47;;;10.54;92.43
49030;BME280;43337;52.070;4.508;2022-11-11T00:29:10;102897.19;;;10.52;92.43
49030;BME280;43337;52.070;4.508;2022-11-11T00:31:35;102887.66;;;10.42;92.62
49030;BME280;43337;52.070;4.508;2022-11-11T00:34:20;102895.50;;;10.46;92.92
49030;BME280;43337;52.070;4.508;2022-11-11T00:36:46;102892.00;;;10.44;92.57
49030;BME280;43337;52.070;4.508;2022-11-11T00:39:11;102882.38;;;10.40;92.81
49030;BME280;43337;52.070;4.508;2022-11-11T00:41:36;102872.78;;;10.38;92.70
49030;BME280;43337;52.070;4.508;2022-11-11T00:44:01;102880.66;;;10.39;92.69
49030;BME280;43337;52.070;4.508;2022-11-11T00:46:27;102875.38;;;10.39;93.22
49030;BME280;43337;52.070;4.508;2022-11-11T00:49:11;102843.06;;;10.17;93.10
49030;BME280;43337;52.070;4.508;2022-11-11T00:51:55;102873.72;;;10.24;92.89
49030;BME280;43337;52.070;4.508;2022-11-11T00:54:20;102868.44;;;10.29;92.85
49030;BME280;43337;52.070;4.508;2022-11-11T00:56:45;102882.50;;;10.28;92.76
49030;BME280;43337;52.070;4.508;2022-11-11T00:59:11;102881.63;;;10.27;92.94
49030;BME280;43337;52.070;4.508;2022-11-11T01:01:36;102884.25;;;10.26;93.35
49030;BME280;43337;52.070;4.508;2022-11-11T01:04:04;102875.47;;;10.24;93.11
49030;BME280;43337;52.070;4.508;2022-11-11T01:06:29;102868.50;;;10.20;93.44
49030;BME280;43337;52.070;4.508;2022-11-11T01:08:55;102877.25;;;10.20;93.40
49030;BME280;43337;52.070;4.508;2022-11-11T01:11:22;102877.25;;;10.20;93.52
49030;BME280;43337;52.070;4.508;2022-11-11T01:13:48;102870.25;;;10.19;93.63
49030;BME280;43337;52.070;4.508;2022-11-11T01:16:20;102855.38;;;10.15;93.64
49030;BME280;43337;52.070;4.508;2022-11-11T01:18:46;102855.38;;;10.14;93.61
49030;BME280;43337;52.070;4.508;2022-11-11T01:21:17;102865.84;;;10.18;93.57
49030;BME280;43337;52.070;4.508;2022-11-11T01:23:43;102872.94;;;10.15;94.07
49030;BME280;43337;52.070;4.508;2022-11-11T01:26:19;102880.84;;;10.15;93.78
49030;BME280;43337;52.070;4.508;2022-11-11T01:28:48;102871.16;;;10.14;94.02
49030;BME280;43337;52.070;4.508;2022-11-11T01:31:14;102884.31;;;10.17;93.76
49030;BME280;43337;52.070;4.508;2022-11-11T01:33:41;102879.94;;;10.16;94.07
49030;BME280;43337;52.070;4.508;2022-11-11T01:36:12;102881.69;;;10.15;94.13
49030;BME280;43337;52.070;4.508;2022-11-11T01:38:38;102892.22;;;10.15;93.98
49030;BME280;43337;52.070;4.508;2022-11-11T01:41:06;102887.81;;;10.14;94.29
49030;BME280;43337;52.070;4.508;2022-11-11T01:43:52;102886.97;;;10.12;94.13
49030;BME280;43337;52.070;4.508;2022-11-11T01:46:34;102893.97;;;10.13;94.01
49030;BME280;43337;52.070;4.508;2022-11-11T01:49:24;102883.47;;;10.12;93.89
49030;BME280;43337;52.070;4.508;2022-11-11T01:52:02;102881.72;;;10.11;94.33
49030;BME280;43337;52.070;4.508;2022-11-11T01:57:27;102872.97;;;10.09;94.35
49030;BME280;43337;52.070;4.508;2022-11-11T02:00:00;102857.22;;;10.07;94.75
49030;BME280;43337;52.070;4.508;2022-11-11T02:02:51;102868.59;;;10.08;94.36
49030;BME280;43337;52.070;4.508;2022-11-11T02:05:19;102876.50;;;10.08;94.60
49030;BME280;43337;52.070;4.508;2022-11-11T02:08:07;102880.00;;;10.07;94.26
49030;BME280;43337;52.070;4.508;2022-11-11T02:10:33;102879.16;;;10.05;94.59
49030;BME280;43337;52.070;4.508;2022-11-11T02:12:59;102875.69;;;9.99;94.37
49030;BME280;43337;52.070;4.508;2022-11-11T02:15:44;102869.53;;;9.99;94.58
49030;BME280;43337;52.070;4.508;2022-11-11T02:18:10;102877.41;;;10.00;94.69
49030;BME280;43337;52.070;4.508;2022-11-11T02:20:38;102868.69;;;9.97;95.04
49030;BME280;43337;52.070;4.508;2022-11-11T02:23:07;102866.06;;;9.94;94.66
49030;BME280;43337;52.070;4.508;2022-11-11T02:25:36;102868.69;;;9.94;94.45
49030;BME280;43337;52.070;4.508;2022-11-11T02:28:04;102879.19;;;9.97;94.48
49030;BME280;43337;52.070;4.508;2022-11-11T02:30:31;102859.06;;;9.90;94.91
49030;BME280;43337;52.070;4.508;2022-11-11T02:32:56;102884.47;;;9.94;95.01
49030;BME280;43337;52.070;4.508;2022-11-11T02:35:33;102881.00;;;9.92;94.67
49030;BME280;43337;52.070;4.508;2022-11-11T02:38:00;102872.25;;;9.88;94.89
49030;BME280;43337;52.070;4.508;2022-11-11T02:40:39;102884.50;;;9.91;94.98
49030;BME280;43337;52.070;4.508;2022-11-11T02:43:24;102873.16;;;9.83;95.07
49030;BME280;43337;52.070;4.508;2022-11-11T02:45:49;102888.91;;;9.89;94.61
49030;BME280;43337;52.070;4.508;2022-11-11T02:48:14;102865.28;;;9.81;95.34
49030;BME280;43337;52.070;4.508;2022-11-11T02:50:40;102867.91;;;9.79;94.97
49030;BME280;43337;52.070;4.508;2022-11-11T02:53:05;102865.28;;;9.79;94.89
49030;BME280;43337;52.070;4.508;2022-11-11T02:55:30;102867.94;;;9.78;95.09
49030;BME280;43337;52.070;4.508;2022-11-11T02:57:56;102877.56;;;9.81;95.16
49030;BME280;43337;52.070;4.508;2022-11-11T03:00:21;102883.72;;;9.76;95.35
49030;BME280;43337;52.070;4.508;2022-11-11T03:02:46;102886.38;;;9.76;95.32
49030;BME280;43337;52.070;4.508;2022-11-11T03:05:12;102882.88;;;9.73;95.34
49030;BME280;43337;52.070;4.508;2022-11-11T03:07:37;102885.50;;;9.73;95.22
49030;BME280;43337;52.070;4.508;2022-11-11T03:10:03;102879.38;;;9.69;95.16
49030;BME280;43337;52.070;4.508;2022-11-11T03:12:28;102873.28;;;9.60;95.21
49030;BME280;43337;52.070;4.508;2022-11-11T03:14:53;102894.28;;;9.70;95.53
49030;BME280;43337;52.070;4.508;2022-11-11T03:17:19;102887.28;;;9.66;95.61
49030;BME280;43337;52.070;4.508;2022-11-11T03:20:14;102882.91;;;9.65;95.90
49030;BME280;43337;52.070;4.508;2022-11-11T03:25:27;102891.66;;;9.64;96.22
49030;BME280;43337;52.070;4.508;2022-11-11T03:30:35;102886.41;;;9.67;96.01
49030;BME280;43337;52.070;4.508;2022-11-11T03:33:01;102878.53;;;9.63;95.80
49030;BME280;43337;52.070;4.508;2022-11-11T03:35:27;102886.41;;;9.67;95.76
49030;BME280;43337;52.070;4.508;2022-11-11T03:37:53;102897.78;;;9.69;96.18
49030;BME280;43337;52.070;4.508;2022-11-11T03:40:37;102884.66;;;9.66;96.53
49030;BME280;43337;52.070;4.508;2022-11-11T03:43:02;102896.88;;;9.72;96.24
49030;BME280;43337;52.070;4.508;2022-11-11T03:45:27;102889.91;;;9.69;96.36
49030;BME280;43337;52.070;4.508;2022-11-11T03:47:53;102894.25;;;9.73;96.14
49030;BME280;43337;52.070;4.508;2022-11-11T03:50:20;102899.53;;;9.73;96.65
49030;BME280;43337;52.070;4.508;2022-11-11T03:52:45;102909.13;;;9.76;96.29
49030;BME280;43337;52.070;4.508;2022-11-11T03:55:11;102910.03;;;9.75;96.40
49030;BME280;43337;52.070;4.508;2022-11-11T03:57:44;102910.03;;;9.75;96.55
49030;BME280;43337;52.070;4.508;2022-11-11T04:00:14;102907.41;;;9.73;96.23
49030;BME280;43337;52.070;4.508;2022-11-11T04:02:40;102906.56;;;9.70;96.68
49030;BME280;43337;52.070;4.508;2022-11-11T04:05:24;102905.66;;;9.71;96.58
49030;BME280;43337;52.070;4.508;2022-11-11T04:08:15;102919.69;;;9.73;96.32
49030;BME280;43337;52.070;4.508;2022-11-11T04:11:04;102910.06;;;9.67;96.57
49030;BME280;43337;52.070;4.508;2022-11-11T04:13:30;102915.34;;;9.66;96.47
49030;BME280;43337;52.070;4.508;2022-11-11T04:16:15;102911.81;;;9.68;96.60
49030;BME280;43337;52.070;4.508;2022-11-11T04:18:40;102908.34;;;9.65;96.77
49030;BME280;43337;52.070;4.508;2022-11-11T04:21:24;102913.59;;;9.66;96.73
49030;BME280;43337;52.070;4.508;2022-11-11T04:24:11;102905.72;;;9.65;96.81
49030;BME280;43337;52.070;4.508;2022-11-11T04:26:57;102903.97;;;9.61;96.50
49030;BME280;43337;52.070;4.508;2022-11-11T04:29:23;102898.69;;;9.61;96.18
49030;BME280;43337;52.070;4.508;2022-11-11T04:32:43;102895.19;;;9.60;96.60
49030;BME280;43337;52.070;4.508;2022-11-11T04:35:02;102883.81;;;9.57;96.25
49030;BME280;43337;52.070;4.508;2022-11-11T04:37:33;102891.75;;;9.53;96.21
49030;BME280;43337;52.070;4.508;2022-11-11T04:39:58;102880.41;;;9.42;96.15
49030;BME280;43337;52.070;4.508;2022-11-11T04:42:42;102870.75;;;9.46;96.13
49030;BME280;43337;52.070;4.508;2022-11-11T04:45:12;102870.75;;;9.44;96.10
49030;BME280;43337;52.070;4.508;2022-11-11T04:47:57;102872.53;;;9.42;96.35
49030;BME280;43337;52.070;4.508;2022-11-11T04:50:23;102869.91;;;9.39;96.46
49030;BME280;43337;52.070;4.508;2022-11-11T04:52:49;102863.78;;;9.29;96.31
49030;BME280;43337;52.070;4.508;2022-11-11T04:55:15;102874.28;;;9.36;96.38
49030;BME280;43337;52.070;4.508;2022-11-11T04:57:59;102870.81;;;9.29;96.39
49030;BME280;43337;52.070;4.508;2022-11-11T05:00:24;102856.84;;;9.21;96.32
49030;BME280;43337;52.070;4.508;2022-11-11T05:02:53;102875.19;;;9.32;96.58
49030;BME280;43337;52.070;4.508;2022-11-11T05:05:37;102826.25;;;9.01;96.53
49030;BME280;43337;52.070;4.508;2022-11-11T05:08:21;102883.97;;;9.27;96.63
49030;BME280;43337;52.070;4.508;2022-11-11T05:11:05;102896.25;;;9.27;96.41
49030;BME280;43337;52.070;4.508;2022-11-11T05:13:31;102892.75;;;9.25;96.37
49030;BME280;43337;52.070;4.508;2022-11-11T05:16:25;102884.88;;;9.20;96.62
49030;BME280;43337;52.070;4.508;2022-11-11T05:19:10;102891.88;;;9.23;96.87
49030;BME280;43337;52.070;4.508;2022-11-11T05:21:57;102884.91;;;9.19;96.50
49030;BME280;43337;52.070;4.508;2022-11-11T05:24:25;102896.25;;;9.22;96.74
49030;BME280;43337;52.070;4.508;2022-11-11T05:27:09;102890.97;;;9.22;96.67
49030;BME280;43337;52.070;4.508;2022-11-11T05:29:35;102877.00;;;9.16;96.77
49030;BME280;43337;52.070;4.508;2022-11-11T05:32:00;102884.03;;;9.12;96.85
49030;BME280;43337;52.070;4.508;2022-11-11T05:34:26;102891.03;;;9.19;96.55
49030;BME280;43337;52.070;4.508;2022-11-11T05:36:51;102891.88;;;9.20;96.93
49030;BME280;43337;52.070;4.508;2022-11-11T05:39:16;102890.16;;;9.16;96.80
49030;BME280;43337;52.070;4.508;2022-11-11T05:41:42;102885.81;;;9.05;96.65
49030;BME280;43337;52.070;4.508;2022-11-11T05:44:07;102895.44;;;9.11;96.67
49030;BME280;43337;52.070;4.508;2022-11-11T05:46:32;102908.53;;;9.14;96.61
49030;BME280;43337;52.070;4.508;2022-11-11T05:48:58;102897.16;;;9.11;96.77
49030;BME280;43337;52.070;4.508;2022-11-11T05:51:42;102912.06;;;9.13;96.92
49030;BME280;43337;52.070;4.508;2022-11-11T05:54:08;102913.81;;;9.10;97.31
49030;BME280;43337;52.070;4.508;2022-11-11T05:56:33;102905.06;;;9.08;96.95
49030;BME280;43337;52.070;4.508;2022-11-11T05:58:58;102906.81;;;9.10;97.35
49030;BME280;43337;52.070;4.508;2022-11-11T06:01:24;102906.84;;;9.07;97.02
49030;BME280;43337;52.070;4.508;2022-11-11T06:03:50;102903.34;;;9.03;97.11
49030;BME280;43337;52.070;4.508;2022-11-11T06:06:15;102909.47;;;9.07;97.57
49030;BME280;43337;52.070;4.508;2022-11-11T06:08:40;102888.50;;;8.89;97.19
49030;BME280;43337;52.070;4.508;2022-11-11T06:11:06;102917.34;;;9.07;97.21
49030;BME280;43337;52.070;4.508;2022-11-11T06:13:31;102912.94;;;9.09;97.85
49030;BME280;43337;52.070;4.508;2022-11-11T06:15:57;102905.06;;;9.06;97.72
49030;BME280;43337;52.070;4.508;2022-11-11T06:18:24;102914.69;;;9.12;97.78
49030;BME280;43337;52.070;4.508;2022-11-11T06:20:57;102898.06;;;9.02;97.55
49030;BME280;43337;52.070;4.508;2022-11-11T06:23:23;102915.56;;;9.14;97.49
49030;BME280;43337;52.070;4.508;2022-11-11T06:25:49;102909.44;;;9.10;97.58
49030;BME280;43337;52.070;4.508;2022-11-11T06:28:34;102909.44;;;9.10;97.71
49030;BME280;43337;52.070;4.508;2022-11-11T06:30:59;102914.69;;;9.13;97.77
49030;BME280;43337;52.070;4.508;2022-11-11T06:33:24;102909.47;;;9.04;97.62
49030;BME280;43337;52.070;4.508;2022-11-11T06:35:50;102925.16;;;9.18;97.86
49030;BME280;43337;52.070;4.508;2022-11-11T06:38:16;102927.81;;;9.16;97.58
49030;BME280;43337;52.070;4.508;2022-11-11T06:40:42;102932.19;;;9.17;97.58
49030;BME280;43337;52.070;4.508;2022-11-11T06:43:08;102928.69;;;9.17;97.58
49030;BME280;43337;52.070;4.508;2022-11-11T06:45:34;102923.44;;;9.14;97.47
49030;BME280;43337;52.070;4.508;2022-11-11T06:48:03;102929.56;;;9.14;97.46
49030;BME280;43337;52.070;4.508;2022-11-11T06:50:31;102934.84;;;9.13;97.36
49030;BME280;43337;52.070;4.508;2022-11-11T06:53:03;102931.31;;;9.11;97.47
49030;BME280;43337;52.070;4.508;2022-11-11T06:55:29;102918.22;;;9.01;97.46
49030;BME280;43337;52.070;4.508;2022-11-11T06:57:54;102941.00;;;9.07;97.45
49030;BME280;43337;52.070;4.508;2022-11-11T07:00:19;102933.13;;;9.01;97.73
49030;BME280;43337;52.070;4.508;2022-11-11T07:02:44;102940.13;;;9.03;97.90
49030;BME280;43337;52.070;4.508;2022-11-11T07:05:11;102933.97;;;8.98;97.45
49030;BME280;43337;52.070;4.508;2022-11-11T07:07:37;102938.38;;;9.01;97.58
49030;BME280;43337;52.070;4.508;2022-11-11T07:10:03;102934.00;;;8.94;97.82
49030;BME280;43337;52.070;4.508;2022-11-11T07:12:31;102943.63;;;8.98;97.60
49030;BME280;43337;52.070;4.508;2022-11-11T07:14:58;102942.75;;;8.97;97.54
49030;BME280;43337;52.070;4.508;2022-11-11T07:17:23;102940.13;;;8.90;97.72
49030;BME280;43337;52.070;4.508;2022-11-11T07:19:48;102951.53;;;8.96;97.64
49030;BME280;43337;52.070;4.508;2022-11-11T07:22:14;102945.38;;;8.97;97.88
49030;BME280;43337;52.070;4.508;2022-11-11T07:24:39;102953.25;;;8.94;97.79
49030;BME280;43337;52.070;4.508;2022-11-11T07:27:05;102941.00;;;8.90;97.58
49030;BME280;43337;52.070;4.508;2022-11-11T07:29:30;102945.41;;;8.90;97.88
49030;BME280;43337;52.070;4.508;2022-11-11T07:31:55;102967.28;;;8.96;97.96
49030;BME280;43337;52.070;4.508;2022-11-11T07:34:21;102948.91;;;8.86;98.04
49030;BME280;43337;52.070;4.508;2022-11-11T07:36:46;102952.41;;;8.86;98.05
49030;BME280;43337;52.070;4.508;2022-11-11T07:39:12;102962.03;;;8.93;98.14
49030;BME280;43337;52.070;4.508;2022-11-11T07:41:37;102958.53;;;8.87;97.77
49030;BME280;43337;52.070;4.508;2022-11-11T07:44:02;102960.28;;;8.89;97.92
49030;BME280;43337;52.070;4.508;2022-11-11T07:46:28;102981.28;;;8.98;97.99
49030;BME280;43337;52.070;4.508;2022-11-11T07:48:53;102969.03;;;8.97;98.01
49030;BME280;43337;52.070;4.508;2022-11-11T07:51:18;102983.91;;;9.00;98.01
49030;BME280;43337;52.070;4.508;2022-11-11T07:53:44;102974.25;;;8.99;98.17
49030;BME280;43337;52.070;4.508;2022-11-11T07:56:09;102973.38;;;9.03;97.84
49030;BME280;43337;52.070;4.508;2022-11-11T07:58:34;102980.38;;;9.02;98.17
49030;BME280;43337;52.070;4.508;2022-11-11T08:01:00;102980.38;;;9.10;97.96
49030;BME280;43337;52.070;4.508;2022-11-11T08:03:26;102990.88;;;9.13;98.15
49030;BME280;43337;52.070;4.508;2022-11-11T08:05:51;102986.50;;;9.14;98.31
49030;BME280;43337;52.070;4.508;2022-11-11T08:08:19;102990.91;;;9.16;98.12
49030;BME280;43337;52.070;4.508;2022-11-11T08:10:49;102984.75;;;9.16;97.98
49030;BME280;43337;52.070;4.508;2022-11-11T08:13:14;103003.16;;;9.23;98.14
49030;BME280;43337;52.070;4.508;2022-11-11T08:15:58;102998.75;;;9.22;98.29
49030;BME280;43337;52.070;4.508;2022-11-11T08:18:23;103011.00;;;9.29;98.54
49030;BME280;43337;52.070;4.508;2022-11-11T08:20:49;103006.66;;;9.27;98.17
49030;BME280;43337;52.070;4.508;2022-11-11T08:23:14;103010.09;;;9.37;98.56
49030;BME280;43337;52.070;4.508;2022-11-11T08:25:45;103010.09;;;9.34;98.24
49030;BME280;43337;52.070;4.508;2022-11-11T08:28:11;103030.25;;;9.44;98.63
49030;BME280;43337;52.070;4.508;2022-11-11T08:30:36;103025.00;;;9.42;98.36
49030;BME280;43337;52.070;4.508;2022-11-11T08:33:03;103039.88;;;9.48;98.46
49030;BME280;43337;52.070;4.508;2022-11-11T08:35:30;103039.88;;;9.51;98.50
49030;BME280;43337;52.070;4.508;2022-11-11T08:38:00;103038.13;;;9.50;98.42
49030;BME280;43337;52.070;4.508;2022-11-11T08:40:26;103037.25;;;9.54;98.39
49030;BME280;43337;52.070;4.508;2022-11-11T08:42:55;103031.97;;;9.56;98.65
49030;BME280;43337;52.070;4.508;2022-11-11T08:45:21;103048.63;;;9.65;98.39
49030;BME280;43337;52.070;4.508;2022-11-11T08:47:47;103038.97;;;9.66;98.43
49030;BME280;43337;52.070;4.508;2022-11-11T08:50:12;103031.94;;;9.69;98.20
49030;BME280;43337;52.070;4.508;2022-11-11T08:52:38;103031.94;;;9.66;98.27
49030;BME280;43337;52.070;4.508;2022-11-11T08:55:03;103042.44;;;9.74;98.41
49030;BME280;43337;52.070;4.508;2022-11-11T08:57:29;103051.19;;;9.74;98.30
49030;BME280;43337;52.070;4.508;2022-11-11T08:59:54;103041.56;;;9.70;98.44
49030;BME280;43337;52.070;4.508;2022-11-11T09:02:20;103048.56;;;9.76;98.25
49030;BME280;43337;52.070;4.508;2022-11-11T09:04:45;103052.94;;;9.78;98.72
49030;BME280;43337;52.070;4.508;2022-11-11T09:07:11;103051.19;;;9.79;98.53
49030;BME280;43337;52.070;4.508;2022-11-11T09:09:37;103052.91;;;9.83;98.29
49030;BME280;43337;52.070;4.508;2022-11-11T09:12:02;103039.81;;;9.74;98.40
49030;BME280;43337;52.070;4.508;2022-11-11T09:14:28;103057.28;;;9.90;98.49
49030;BME280;43337;52.070;4.508;2022-11-11T09:16:53;103055.53;;;9.89;98.55
49030;BME280;43337;52.070;4.508;2022-11-11T09:19:18;103065.16;;;9.95;98.49
49030;BME280;43337;52.070;4.508;2022-11-11T09:21:44;103060.78;;;9.97;98.43
49030;BME280;43337;52.070;4.508;2022-11-11T09:24:09;103063.34;;;10.03;98.23
49030;BME280;43337;52.070;4.508;2022-11-11T09:26:35;103072.16;;;10.03;98.41
49030;BME280;43337;52.070;4.508;2022-11-11T09:29:00;103074.75;;;10.05;98.27
49030;BME280;43337;52.070;4.508;2022-11-11T09:31:25;103077.41;;;10.08;97.97
49030;BME280;43337;52.070;4.508;2022-11-11T09:33:51;103086.16;;;10.12;98.36
49030;BME280;43337;52.070;4.508;2022-11-11T09:36:17;103080.03;;;10.11;97.80
49030;BME280;43337;52.070;4.508;2022-11-11T09:38:42;103083.50;;;10.16;98.15
49030;BME280;43337;52.070;4.508;2022-11-11T09:41:20;103087.03;;;10.15;97.86
49030;BME280;43337;52.070;4.508;2022-11-11T09:43:58;103088.72;;;10.21;97.93
49030;BME280;43337;52.070;4.508;2022-11-11T09:46:34;103092.25;;;10.26;98.05
49030;BME280;43337;52.070;4.508;2022-11-11T09:51:32;103095.72;;;10.30;97.78
49030;BME280;43337;52.070;4.508;2022-11-11T09:54:08;103100.97;;;10.36;97.87
49030;BME280;43337;52.070;4.508;2022-11-11T09:56:38;103103.59;;;10.37;97.52
49030;BME280;43337;52.070;4.508;2022-11-11T09:59:18;103100.97;;;10.36;97.61
49030;BME280;43337;52.070;4.508;2022-11-11T10:01:49;103103.56;;;10.43;97.43
49030;BME280;43337;52.070;4.508;2022-11-11T10:04:34;103123.75;;;10.46;97.19
49030;BME280;43337;52.070;4.508;2022-11-11T10:07:11;103114.09;;;10.46;97.24
49030;BME280;43337;52.070;4.508;2022-11-11T10:09:48;103119.38;;;10.43;96.99
49030;BME280;43337;52.070;4.508;2022-11-11T10:12:18;103128.16;;;10.45;97.29
49030;BME280;43337;52.070;4.508;2022-11-11T10:14:46;103115.84;;;10.44;96.47
49030;BME280;43337;52.070;4.508;2022-11-11T10:20:23;103120.25;;;10.47;96.90
49030;BME280;43337;52.070;4.508;2022-11-11T10:22:54;103130.75;;;10.50;96.88
49030;BME280;43337;52.070;4.508;2022-11-11T10:25:25;103116.72;;;10.45;96.79
49030;BME280;43337;52.070;4.508;2022-11-11T10:27:54;103131.63;;;10.50;96.54
49030;BME280;43337;52.070;4.508;2022-11-11T10:32:55;103130.75;;;10.50;96.23
49030;BME280;43337;52.070;4.508;2022-11-11T10:35:27;103134.25;;;10.49;96.30
49030;BME280;43337;52.070;4.508;2022-11-11T10:38:02;103118.50;;;10.41;96.49
49030;BME280;43337;52.070;4.508;2022-11-11T10:40:43;103129.00;;;10.49;96.23
49030;BME280;43337;52.070;4.508;2022-11-11T10:43:20;103128.13;;;10.47;96.25
49030;BME280;43337;52.070;4.508;2022-11-11T10:46:00;103123.72;;;10.52;96.15
49030;BME280;43337;52.070;4.508;2022-11-11T10:51:25;103122.84;;;10.48;95.87
49030;BME280;43337;52.070;4.508;2022-11-11T10:53:57;103128.94;;;10.60;96.48
49030;BME280;43337;52.070;4.508;2022-11-11T10:56:33;103119.31;;;10.56;96.00
49030;BME280;43337;52.070;4.508;2022-11-11T10:59:12;103124.56;;;10.62;95.98
49030;BME280;43337;52.070;4.508;2022-11-11T11:02:27;103127.16;;;10.66;96.17
49030;BME280;43337;52.070;4.508;2022-11-11T11:05:04;103131.53;;;10.67;96.05
49030;BME280;43337;52.070;4.508;2022-11-11T11:07:50;103120.13;;;10.67;95.65
49030;BME280;43337;52.070;4.508;2022-11-11T11:10:21;103121.00;;;10.69;95.47
49030;BME280;43337;52.070;4.508;2022-11-11T11:13:35;103105.25;;;10.58;95.44
49030;BME280;43337;52.070;4.508;2022-11-11T11:16:09;103116.59;;;10.68;95.72
49030;BME280;43337;52.070;4.508;2022-11-11T11:18:37;103129.75;;;10.71;95.18
49030;BME280;43337;52.070;4.508;2022-11-11T11:21:05;103106.94;;;10.67;95.24
49030;BME280;43337;52.070;4.508;2022-11-11T11:23:36;103120.94;;;10.72;95.36
49030;BME280;43337;52.070;4.508;2022-11-11T11:26:01;103119.22;;;10.72;95.17
49030;BME280;43337;52.070;4.508;2022-11-11T11:28:29;103105.16;;;10.73;95.37
49030;BME280;43337;52.070;4.508;2022-11-11T11:31:05;103097.25;;;10.73;95.32
49030;BME280;43337;52.070;4.508;2022-11-11T11:33:54;103112.09;;;10.84;95.04
49030;BME280;43337;52.070;4.508;2022-11-11T11:36:19;103097.25;;;10.73;94.75
49030;BME280;43337;52.070;4.508;2022-11-11T11:38:48;103113.84;;;10.86;94.71
49030;BME280;43337;52.070;4.508;2022-11-11T11:41:16;103113.00;;;10.81;94.46
49030;BME280;43337;52.070;4.508;2022-11-11T11:43:43;103108.63;;;10.80;94.44
49030;BME280;43337;52.070;4.508;2022-11-11T11:46:37;103113.03;;;10.78;94.52
49030;BME280;43337;52.070;4.508;2022-11-11T11:52:05;103114.72;;;10.84;94.51
49030;BME280;43337;52.070;4.508;2022-11-11T11:54:40;103115.56;;;10.90;94.20
49030;BME280;43337;52.070;4.508;2022-11-11T12:00:05;103108.53;;;10.95;94.14
49030;BME280;43337;52.070;4.508;2022-11-11T12:08:24;103112.84;;;11.01;93.93
49030;BME280;43337;52.070;4.508;2022-11-11T12:10:59;103102.31;;;11.01;93.63
49030;BME280;43337;52.070;4.508;2022-11-11T12:16:20;103103.09;;;11.15;93.87
49030;BME280;43337;52.070;4.508;2022-11-11T12:19:00;103117.94;;;11.24;93.99
49030;BME280;43337;52.070;4.508;2022-11-11T12:21:57;103106.50;;;11.27;93.17
49030;BME280;43337;52.070;4.508;2022-11-11T12:27:36;103107.19;;;11.44;93.45
49030;BME280;43337;52.070;4.508;2022-11-11T12:30:17;103108.00;;;11.52;93.45
49030;BME280;43337;52.070;4.508;2022-11-11T12:38:11;103102.47;;;11.78;92.71
49030;BME280;43337;52.070;4.508;2022-11-11T12:57:24;103085.59;;;11.93;91.43
49030;BME280;43337;52.070;4.508;2022-11-11T13:00:07;103110.91;;;12.11;91.28
49030;BME280;43337;52.070;4.508;2022-11-11T13:05:44;103087.84;;;12.24;90.79
49030;BME280;43337;52.070;4.508;2022-11-11T13:16:51;103083.31;;;12.33;90.65
49030;BME280;43337;52.070;4.508;2022-11-11T13:22:14;103096.34;;;12.47;90.19
49030;BME280;43337;52.070;4.508;2022-11-11T13:24:43;103071.69;;;12.46;90.49
49030;BME280;43337;52.070;4.508;2022-11-11T13:27:18;103082.97;;;12.58;90.35
49030;BME280;43337;52.070;4.508;2022-11-11T13:32:46;103083.66;;;12.70;90.18
49030;BME280;43337;52.070;4.508;2022-11-11T13:38:00;103095.03;;;12.77;89.70
49030;BME280;43337;52.070;4.508;2022-11-11T13:40:31;103097.66;;;12.76;89.13
49030;BME280;43337;52.070;4.508;2022-11-11T13:42:58;103095.97;;;12.73;88.83
49030;BME280;43337;52.070;4.508;2022-11-11T13:45:29;103095.97;;;12.71;89.04
49030;BME280;43337;52.070;4.508;2022-11-11T13:47:58;103092.47;;;12.71;89.19
49030;BME280;43337;52.070;4.508;2022-11-11T13:50:30;103095.13;;;12.68;88.86
49030;BME280;43337;52.070;4.508;2022-11-11T13:53:00;103082.03;;;12.62;88.59
49030;BME280;43337;52.070;4.508;2022-11-11T13:55:41;103091.66;;;12.64;88.79
49030;BME280;43337;52.070;4.508;2022-11-11T13:58:23;103080.25;;;12.62;88.67
49030;BME280;43337;52.070;4.508;2022-11-11T14:00:58;103087.28;;;12.63;88.44
49030;BME280;43337;52.070;4.508;2022-11-11T14:13:49;103074.22;;;12.53;88.37
49030;BME280;43337;52.070;4.508;2022-11-11T14:19:11;103081.34;;;12.48;88.21
49030;BME280;43337;52.070;4.508;2022-11-11T14:21:57;103084.03;;;12.46;88.26
49030;BME280;43337;52.070;4.508;2022-11-11T14:27:00;103075.34;;;12.36;88.27
49030;BME280;43337;52.070;4.508;2022-11-11T14:29:32;103094.69;;;12.41;88.08
49030;BME280;43337;52.070;4.508;2022-11-11T14:32:28;103094.69;;;12.40;88.16
49030;BME280;43337;52.070;4.508;2022-11-11T14:40:00;103095.66;;;12.33;88.19
49030;BME280;43337;52.070;4.508;2022-11-11T14:45:05;103086.91;;;12.28;88.05
49030;BME280;43337;52.070;4.508;2022-11-11T14:47:49;103089.63;;;12.23;88.34
49030;BME280;43337;52.070;4.508;2022-11-11T14:52:59;103098.50;;;12.17;88.17
49030;BME280;43337;52.070;4.508;2022-11-11T14:55:29;103099.34;;;12.18;88.27
49030;BME280;43337;52.070;4.508;2022-11-11T14:58:13;103097.66;;;12.15;88.12
49030;BME280;43337;52.070;4.508;2022-11-11T15:01:17;103101.22;;;12.11;88.22